sensor_id;sensor_type;location;lat;lon;timestamp;P1;durP1;ratioP1;P2;durP2;ratioP2
65459;SDS011;52058;49.822;6.754;2023-02-15T00:01:31;21.55;;;11.57;;
65459;SDS011;52058;49.822;6.754;2023-02-15T00:03:58;23.90;;;11.98;;
65459;SDS011;52058;49.822;6.754;2023-02-15T00:06:26;25.20;;;13.05;;
65459;SDS011;52058;49.822;6.754;2023-02-15T00:08:53;22.02;;;10.77;;
65459;SDS011;52058;49.822;6.754;2023-02-15T00:11:21;20.23;;;9.93;;
65459;SDS011;52058;49.822;6.754;2023-02-15T00:14:02;23.00;;;10.68;;
65459;SDS011;52058;49.822;6.754;2023-02-15T00:16:30;24.23;;;10.60;;
65459;SDS011;52058;49.822;6.754;2023-02-15T00:18:56;22.20;;;10.85;;
65459;SDS011;52058;49.822;6.754;2023-02-15T00:21:28;20.55;;;10.30;;
65459;SDS011;52058;49.822;6.754;2023-02-15T00:23:55;21.33;;;10.35;;
65459;SDS011;52058;49.822;6.754;2023-02-15T00:26:22;20.98;;;10.80;;
65459;SDS011;52058;49.822;6.754;2023-02-15T00:28:49;24.85;;;11.43;;
65459;SDS011;52058;49.822;6.754;2023-02-15T00:31:16;21.13;;;10.75;;
65459;SDS011;52058;49.822;6.754;2023-02-15T00:33:43;25.17;;;11.60;;
65459;SDS011;52058;49.822;6.754;2023-02-15T00:36:10;24.48;;;11.40;;
65459;SDS011;52058;49.822;6.754;2023-02-15T00:38:39;23.00;;;11.35;;
65459;SDS011;52058;49.822;6.754;2023-02-15T00:41:06;23.52;;;12.13;;
65459;SDS011;52058;49.822;6.754;2023-02-15T00:43:34;24.50;;;11.00;;
65459;SDS011;52058;49.822;6.754;2023-02-15T00:46:01;21.55;;;10.77;;
65459;SDS011;52058;49.822;6.754;2023-02-15T00:48:29;20.10;;;10.23;;
65459;SDS011;52058;49.822;6.754;2023-02-15T00:50:57;22.35;;;10.73;;
65459;SDS011;52058;49.822;6.754;2023-02-15T00:53:26;22.27;;;10.88;;
65459;SDS011;52058;49.822;6.754;2023-02-15T00:55:55;22.95;;;10.45;;
65459;SDS011;52058;49.822;6.754;2023-02-15T00:58:22;25.13;;;10.57;;
65459;SDS011;52058;49.822;6.754;2023-02-15T01:00:49;21.05;;;10.82;;
65459;SDS011;52058;49.822;6.754;2023-02-15T01:03:16;25.73;;;11.10;;
65459;SDS011;52058;49.822;6.754;2023-02-15T01:05:45;21.17;;;10.43;;
65459;SDS011;52058;49.822;6.754;2023-02-15T01:08:13;21.48;;;10.70;;
65459;SDS011;52058;49.822;6.754;2023-02-15T01:10:40;18.65;;;10.18;;
65459;SDS011;52058;49.822;6.754;2023-02-15T01:13:08;23.13;;;10.70;;
65459;SDS011;52058;49.822;6.754;2023-02-15T01:15:35;22.27;;;10.75;;
65459;SDS011;52058;49.822;6.754;2023-02-15T01:18:02;22.02;;;10.18;;
65459;SDS011;52058;49.822;6.754;2023-02-15T01:20:29;23.23;;;10.57;;
65459;SDS011;52058;49.822;6.754;2023-02-15T01:22:56;21.33;;;10.48;;
65459;SDS011;52058;49.822;6.754;2023-02-15T01:25:23;21.42;;;10.48;;
65459;SDS011;52058;49.822;6.754;2023-02-15T01:27:51;19.15;;;9.80;;
65459;SDS011;52058;49.822;6.754;2023-02-15T01:30:19;22.27;;;10.23;;
65459;SDS011;52058;49.822;6.754;2023-02-15T01:32:46;18.90;;;9.63;;
65459;SDS011;52058;49.822;6.754;2023-02-15T01:35:13;20.88;;;10.10;;
65459;SDS011;52058;49.822;6.754;2023-02-15T01:37:39;22.20;;;10.88;;
65459;SDS011;52058;49.822;6.754;2023-02-15T01:40:07;19.90;;;10.38;;
65459;SDS011;52058;49.822;6.754;2023-02-15T01:42:37;19.67;;;10.02;;
65459;SDS011;52058;49.822;6.754;2023-02-15T01:45:05;20.40;;;10.88;;
65459;SDS011;52058;49.822;6.754;2023-02-15T01:47:49;21.60;;;10.32;;
65459;SDS011;52058;49.822;6.754;2023-02-15T01:50:21;19.55;;;9.98;;
65459;SDS011;52058;49.822;6.754;2023-02-15T01:52:52;21.15;;;9.48;;
65459;SDS011;52058;49.822;6.754;2023-02-15T01:55:24;22.70;;;10.50;;
65459;SDS011;52058;49.822;6.754;2023-02-15T01:57:53;22.70;;;10.80;;
65459;SDS011;52058;49.822;6.754;2023-02-15T02:00:20;19.25;;;10.23;;
65459;SDS011;52058;49.822;6.754;2023-02-15T02:02:49;22.23;;;10.45;;
65459;SDS011;52058;49.822;6.754;2023-02-15T02:05:18;21.45;;;9.52;;
65459;SDS011;52058;49.822;6.754;2023-02-15T02:07:45;21.10;;;10.15;;
65459;SDS011;52058;49.822;6.754;2023-02-15T02:10:15;21.02;;;10.40;;
65459;SDS011;52058;49.822;6.754;2023-02-15T02:12:44;22.10;;;9.88;;
65459;SDS011;52058;49.822;6.754;2023-02-15T02:15:13;21.10;;;9.88;;
65459;SDS011;52058;49.822;6.754;2023-02-15T02:17:42;17.73;;;9.30;;
65459;SDS011;52058;49.822;6.754;2023-02-15T02:20:33;18.23;;;10.23;;
65459;SDS011;52058;49.822;6.754;2023-02-15T02:23:20;21.05;;;9.57;;
65459;SDS011;52058;49.822;6.754;2023-02-15T02:29:14;19.02;;;9.80;;
65459;SDS011;52058;49.822;6.754;2023-02-15T02:35:20;20.27;;;9.27;;
65459;SDS011;52058;49.822;6.754;2023-02-15T02:37:55;20.85;;;9.70;;
65459;SDS011;52058;49.822;6.754;2023-02-15T02:40:30;23.80;;;11.02;;
65459;SDS011;52058;49.822;6.754;2023-02-15T02:43:10;23.02;;;10.82;;
65459;SDS011;52058;49.822;6.754;2023-02-15T02:45:45;22.02;;;10.43;;
65459;SDS011;52058;49.822;6.754;2023-02-15T02:48:19;19.77;;;9.68;;
65459;SDS011;52058;49.822;6.754;2023-02-15T02:50:50;23.35;;;10.65;;
65459;SDS011;52058;49.822;6.754;2023-02-15T02:53:17;18.65;;;9.98;;
65459;SDS011;52058;49.822;6.754;2023-02-15T02:55:44;21.00;;;9.52;;
65459;SDS011;52058;49.822;6.754;2023-02-15T02:58:14;20.23;;;9.10;;
65459;SDS011;52058;49.822;6.754;2023-02-15T03:00:46;22.83;;;10.63;;
65459;SDS011;52058;49.822;6.754;2023-02-15T03:03:17;24.92;;;11.15;;
65459;SDS011;52058;49.822;6.754;2023-02-15T03:05:48;19.10;;;11.32;;
65459;SDS011;52058;49.822;6.754;2023-02-15T03:08:21;19.80;;;10.20;;
65459;SDS011;52058;49.822;6.754;2023-02-15T03:10:53;20.58;;;10.20;;
65459;SDS011;52058;49.822;6.754;2023-02-15T03:13:22;21.80;;;9.77;;
65459;SDS011;52058;49.822;6.754;2023-02-15T03:15:49;22.67;;;9.98;;
65459;SDS011;52058;49.822;6.754;2023-02-15T03:18:35;22.58;;;10.35;;
65459;SDS011;52058;49.822;6.754;2023-02-15T03:21:06;21.20;;;9.70;;
65459;SDS011;52058;49.822;6.754;2023-02-15T03:23:47;22.70;;;10.05;;
65459;SDS011;52058;49.822;6.754;2023-02-15T03:26:18;20.60;;;10.30;;
65459;SDS011;52058;49.822;6.754;2023-02-15T03:28:47;21.08;;;9.93;;
65459;SDS011;52058;49.822;6.754;2023-02-15T03:31:17;21.45;;;10.27;;
65459;SDS011;52058;49.822;6.754;2023-02-15T03:33:49;21.75;;;10.65;;
65459;SDS011;52058;49.822;6.754;2023-02-15T03:36:20;26.77;;;12.32;;
65459;SDS011;52058;49.822;6.754;2023-02-15T03:38:50;27.38;;;11.35;;
65459;SDS011;52058;49.822;6.754;2023-02-15T03:41:24;29.52;;;11.95;;
65459;SDS011;52058;49.822;6.754;2023-02-15T03:43:56;28.95;;;12.07;;
65459;SDS011;52058;49.822;6.754;2023-02-15T03:46:27;28.77;;;12.43;;
65459;SDS011;52058;49.822;6.754;2023-02-15T03:49:00;34.50;;;14.45;;
65459;SDS011;52058;49.822;6.754;2023-02-15T03:51:32;30.77;;;12.95;;
65459;SDS011;52058;49.822;6.754;2023-02-15T03:56:30;28.27;;;11.27;;
65459;SDS011;52058;49.822;6.754;2023-02-15T03:58:59;30.48;;;12.07;;
65459;SDS011;52058;49.822;6.754;2023-02-15T04:01:45;30.00;;;13.02;;
65459;SDS011;52058;49.822;6.754;2023-02-15T04:04:27;30.63;;;12.65;;
65459;SDS011;52058;49.822;6.754;2023-02-15T04:06:59;30.95;;;12.73;;
65459;SDS011;52058;49.822;6.754;2023-02-15T04:09:26;31.73;;;13.75;;
65459;SDS011;52058;49.822;6.754;2023-02-15T04:12:11;32.22;;;14.00;;
65459;SDS011;52058;49.822;6.754;2023-02-15T04:14:37;34.75;;;14.25;;
65459;SDS011;52058;49.822;6.754;2023-02-15T04:17:21;33.60;;;14.77;;
65459;SDS011;52058;49.822;6.754;2023-02-15T04:19:48;34.38;;;14.00;;
65459;SDS011;52058;49.822;6.754;2023-02-15T04:22:34;28.92;;;13.40;;
65459;SDS011;52058;49.822;6.754;2023-02-15T04:25:18;24.40;;;11.38;;
65459;SDS011;52058;49.822;6.754;2023-02-15T04:27:46;24.55;;;11.55;;
65459;SDS011;52058;49.822;6.754;2023-02-15T04:30:14;22.40;;;11.80;;
65459;SDS011;52058;49.822;6.754;2023-02-15T04:32:43;27.80;;;11.57;;
65459;SDS011;52058;49.822;6.754;2023-02-15T04:35:10;24.88;;;11.60;;
65459;SDS011;52058;49.822;6.754;2023-02-15T04:37:39;21.75;;;11.05;;
65459;SDS011;52058;49.822;6.754;2023-02-15T04:40:07;24.52;;;11.10;;
65459;SDS011;52058;49.822;6.754;2023-02-15T04:42:34;25.20;;;12.05;;
65459;SDS011;52058;49.822;6.754;2023-02-15T04:45:01;26.27;;;11.90;;
65459;SDS011;52058;49.822;6.754;2023-02-15T04:47:29;25.92;;;11.57;;
65459;SDS011;52058;49.822;6.754;2023-02-15T04:49:55;23.42;;;10.68;;
65459;SDS011;52058;49.822;6.754;2023-02-15T04:52:22;23.90;;;11.68;;
65459;SDS011;52058;49.822;6.754;2023-02-15T04:54:50;22.95;;;11.07;;
65459;SDS011;52058;49.822;6.754;2023-02-15T04:57:17;27.33;;;12.38;;
65459;SDS011;52058;49.822;6.754;2023-02-15T04:59:44;25.52;;;11.38;;
65459;SDS011;52058;49.822;6.754;2023-02-15T05:02:10;34.47;;;13.68;;
65459;SDS011;52058;49.822;6.754;2023-02-15T05:04:37;29.95;;;12.77;;
65459;SDS011;52058;49.822;6.754;2023-02-15T05:07:04;27.65;;;12.02;;
65459;SDS011;52058;49.822;6.754;2023-02-15T05:09:31;29.80;;;11.68;;
65459;SDS011;52058;49.822;6.754;2023-02-15T05:11:59;29.15;;;12.32;;
65459;SDS011;52058;49.822;6.754;2023-02-15T05:14:25;29.58;;;13.30;;
65459;SDS011;52058;49.822;6.754;2023-02-15T05:16:52;26.17;;;12.90;;
65459;SDS011;52058;49.822;6.754;2023-02-15T05:19:19;27.65;;;12.40;;
65459;SDS011;52058;49.822;6.754;2023-02-15T05:21:48;31.00;;;14.05;;
65459;SDS011;52058;49.822;6.754;2023-02-15T05:24:15;32.90;;;12.23;;
65459;SDS011;52058;49.822;6.754;2023-02-15T05:27:00;27.83;;;11.38;;
65459;SDS011;52058;49.822;6.754;2023-02-15T05:29:44;24.73;;;11.35;;
65459;SDS011;52058;49.822;6.754;2023-02-15T05:32:12;22.75;;;11.15;;
65459;SDS011;52058;49.822;6.754;2023-02-15T05:34:39;22.83;;;10.40;;
65459;SDS011;52058;49.822;6.754;2023-02-15T05:37:05;21.50;;;10.32;;
65459;SDS011;52058;49.822;6.754;2023-02-15T05:39:33;25.67;;;10.95;;
65459;SDS011;52058;49.822;6.754;2023-02-15T05:42:01;25.38;;;11.93;;
65459;SDS011;52058;49.822;6.754;2023-02-15T05:44:29;46.20;;;17.90;;
65459;SDS011;52058;49.822;6.754;2023-02-15T05:46:55;39.65;;;16.77;;
65459;SDS011;52058;49.822;6.754;2023-02-15T05:49:22;32.03;;;13.77;;
65459;SDS011;52058;49.822;6.754;2023-02-15T05:51:49;32.72;;;14.13;;
65459;SDS011;52058;49.822;6.754;2023-02-15T05:54:15;38.78;;;17.08;;
65459;SDS011;52058;49.822;6.754;2023-02-15T05:56:42;46.92;;;17.55;;
65459;SDS011;52058;49.822;6.754;2023-02-15T05:59:10;26.05;;;12.52;;
65459;SDS011;52058;49.822;6.754;2023-02-15T06:01:37;26.67;;;11.27;;
65459;SDS011;52058;49.822;6.754;2023-02-15T06:04:04;28.35;;;11.75;;
65459;SDS011;52058;49.822;6.754;2023-02-15T06:06:31;22.80;;;10.38;;
65459;SDS011;52058;49.822;6.754;2023-02-15T06:08:59;31.80;;;12.77;;
65459;SDS011;52058;49.822;6.754;2023-02-15T06:11:26;27.25;;;12.55;;
65459;SDS011;52058;49.822;6.754;2023-02-15T06:13:52;22.90;;;10.88;;
65459;SDS011;52058;49.822;6.754;2023-02-15T06:16:21;22.88;;;10.52;;
65459;SDS011;52058;49.822;6.754;2023-02-15T06:18:47;21.92;;;10.88;;
65459;SDS011;52058;49.822;6.754;2023-02-15T06:21:14;21.20;;;10.98;;
65459;SDS011;52058;49.822;6.754;2023-02-15T06:23:41;23.77;;;11.55;;
65459;SDS011;52058;49.822;6.754;2023-02-15T06:26:08;24.67;;;10.40;;
65459;SDS011;52058;49.822;6.754;2023-02-15T06:28:34;20.52;;;10.13;;
65459;SDS011;52058;49.822;6.754;2023-02-15T06:31:02;29.02;;;11.35;;
65459;SDS011;52058;49.822;6.754;2023-02-15T06:33:30;20.00;;;10.38;;
65459;SDS011;52058;49.822;6.754;2023-02-15T06:35:58;22.15;;;9.63;;
65459;SDS011;52058;49.822;6.754;2023-02-15T06:38:25;19.48;;;9.50;;
65459;SDS011;52058;49.822;6.754;2023-02-15T06:40:52;19.88;;;10.35;;
65459;SDS011;52058;49.822;6.754;2023-02-15T06:43:19;23.98;;;9.38;;
65459;SDS011;52058;49.822;6.754;2023-02-15T06:45:45;21.10;;;9.80;;
65459;SDS011;52058;49.822;6.754;2023-02-15T06:48:12;22.65;;;9.85;;
65459;SDS011;52058;49.822;6.754;2023-02-15T06:50:40;24.98;;;10.50;;
65459;SDS011;52058;49.822;6.754;2023-02-15T06:53:07;23.70;;;9.85;;
65459;SDS011;52058;49.822;6.754;2023-02-15T06:55:34;21.75;;;9.90;;
65459;SDS011;52058;49.822;6.754;2023-02-15T06:58:00;27.15;;;11.30;;
65459;SDS011;52058;49.822;6.754;2023-02-15T07:00:27;26.20;;;11.00;;
65459;SDS011;52058;49.822;6.754;2023-02-15T07:02:54;24.52;;;10.48;;
65459;SDS011;52058;49.822;6.754;2023-02-15T07:05:22;22.90;;;10.30;;
65459;SDS011;52058;49.822;6.754;2023-02-15T07:07:50;23.05;;;10.68;;
65459;SDS011;52058;49.822;6.754;2023-02-15T07:10:17;22.23;;;10.27;;
65459;SDS011;52058;49.822;6.754;2023-02-15T07:12:44;24.55;;;10.70;;
65459;SDS011;52058;49.822;6.754;2023-02-15T07:15:12;22.85;;;10.57;;
65459;SDS011;52058;49.822;6.754;2023-02-15T07:17:40;24.08;;;10.82;;
65459;SDS011;52058;49.822;6.754;2023-02-15T07:20:08;20.60;;;10.25;;
65459;SDS011;52058;49.822;6.754;2023-02-15T07:22:37;22.00;;;10.32;;
65459;SDS011;52058;49.822;6.754;2023-02-15T07:25:06;22.83;;;10.30;;
65459;SDS011;52058;49.822;6.754;2023-02-15T07:27:35;19.50;;;9.90;;
65459;SDS011;52058;49.822;6.754;2023-02-15T07:30:02;23.10;;;9.75;;
65459;SDS011;52058;49.822;6.754;2023-02-15T07:32:30;17.88;;;9.25;;
65459;SDS011;52058;49.822;6.754;2023-02-15T07:34:57;20.40;;;9.80;;
65459;SDS011;52058;49.822;6.754;2023-02-15T07:37:25;18.95;;;8.55;;
65459;SDS011;52058;49.822;6.754;2023-02-15T07:39:52;16.08;;;8.65;;
65459;SDS011;52058;49.822;6.754;2023-02-15T07:42:20;18.33;;;9.90;;
65459;SDS011;52058;49.822;6.754;2023-02-15T07:44:47;18.58;;;9.63;;
65459;SDS011;52058;49.822;6.754;2023-02-15T07:47:13;15.63;;;8.65;;
65459;SDS011;52058;49.822;6.754;2023-02-15T07:49:40;16.23;;;8.55;;
65459;SDS011;52058;49.822;6.754;2023-02-15T07:52:07;16.05;;;8.70;;
65459;SDS011;52058;49.822;6.754;2023-02-15T07:54:34;18.27;;;9.73;;
65459;SDS011;52058;49.822;6.754;2023-02-15T07:57:00;17.10;;;8.57;;
65459;SDS011;52058;49.822;6.754;2023-02-15T07:59:29;16.67;;;8.15;;
65459;SDS011;52058;49.822;6.754;2023-02-15T08:01:56;15.30;;;8.77;;
65459;SDS011;52058;49.822;6.754;2023-02-15T08:04:23;16.02;;;9.30;;
65459;SDS011;52058;49.822;6.754;2023-02-15T08:06:51;14.00;;;8.20;;
65459;SDS011;52058;49.822;6.754;2023-02-15T08:09:20;17.65;;;8.32;;
65459;SDS011;52058;49.822;6.754;2023-02-15T08:11:47;18.23;;;8.45;;
65459;SDS011;52058;49.822;6.754;2023-02-15T08:14:14;15.48;;;8.00;;
65459;SDS011;52058;49.822;6.754;2023-02-15T08:16:44;18.13;;;8.73;;
65459;SDS011;52058;49.822;6.754;2023-02-15T08:19:13;15.43;;;8.40;;
65459;SDS011;52058;49.822;6.754;2023-02-15T08:21:41;16.27;;;7.90;;
65459;SDS011;52058;49.822;6.754;2023-02-15T08:24:10;16.90;;;8.55;;
65459;SDS011;52058;49.822;6.754;2023-02-15T08:26:39;16.00;;;7.72;;
65459;SDS011;52058;49.822;6.754;2023-02-15T08:29:08;14.65;;;7.55;;
65459;SDS011;52058;49.822;6.754;2023-02-15T08:31:35;15.73;;;8.63;;
65459;SDS011;52058;49.822;6.754;2023-02-15T08:34:04;16.92;;;8.20;;
65459;SDS011;52058;49.822;6.754;2023-02-15T08:36:32;17.10;;;8.38;;
65459;SDS011;52058;49.822;6.754;2023-02-15T08:38:59;13.65;;;7.72;;
65459;SDS011;52058;49.822;6.754;2023-02-15T08:41:28;15.10;;;8.23;;
65459;SDS011;52058;49.822;6.754;2023-02-15T08:43:57;14.02;;;8.13;;
65459;SDS011;52058;49.822;6.754;2023-02-15T08:46:25;16.02;;;8.63;;
65459;SDS011;52058;49.822;6.754;2023-02-15T08:48:53;17.08;;;8.75;;
65459;SDS011;52058;49.822;6.754;2023-02-15T08:51:22;15.05;;;7.97;;
65459;SDS011;52058;49.822;6.754;2023-02-15T08:53:51;16.88;;;7.90;;
65459;SDS011;52058;49.822;6.754;2023-02-15T08:56:19;14.32;;;7.80;;
65459;SDS011;52058;49.822;6.754;2023-02-15T08:58:47;16.17;;;8.43;;
65459;SDS011;52058;49.822;6.754;2023-02-15T09:01:15;15.45;;;8.68;;
65459;SDS011;52058;49.822;6.754;2023-02-15T09:03:45;15.55;;;8.70;;
65459;SDS011;52058;49.822;6.754;2023-02-15T09:06:13;17.58;;;8.52;;
65459;SDS011;52058;49.822;6.754;2023-02-15T09:08:41;15.85;;;9.27;;
65459;SDS011;52058;49.822;6.754;2023-02-15T09:11:09;18.33;;;9.38;;
65459;SDS011;52058;49.822;6.754;2023-02-15T09:13:37;15.73;;;8.88;;
65459;SDS011;52058;49.822;6.754;2023-02-15T09:16:05;16.85;;;9.32;;
65459;SDS011;52058;49.822;6.754;2023-02-15T09:18:34;16.15;;;8.70;;
65459;SDS011;52058;49.822;6.754;2023-02-15T09:21:04;18.23;;;8.98;;
65459;SDS011;52058;49.822;6.754;2023-02-15T09:23:32;16.88;;;9.48;;
65459;SDS011;52058;49.822;6.754;2023-02-15T09:26:05;17.13;;;9.52;;
65459;SDS011;52058;49.822;6.754;2023-02-15T09:28:34;20.05;;;9.15;;
65459;SDS011;52058;49.822;6.754;2023-02-15T09:31:12;17.65;;;8.93;;
65459;SDS011;52058;49.822;6.754;2023-02-15T09:33:42;15.90;;;8.60;;
65459;SDS011;52058;49.822;6.754;2023-02-15T09:36:14;19.48;;;10.00;;
65459;SDS011;52058;49.822;6.754;2023-02-15T09:38:42;16.50;;;9.20;;
65459;SDS011;52058;49.822;6.754;2023-02-15T09:41:29;21.73;;;10.18;;
65459;SDS011;52058;49.822;6.754;2023-02-15T09:44:24;18.67;;;9.38;;
65459;SDS011;52058;49.822;6.754;2023-02-15T09:47:07;19.50;;;9.95;;
65459;SDS011;52058;49.822;6.754;2023-02-15T09:49:49;20.58;;;10.10;;
65459;SDS011;52058;49.822;6.754;2023-02-15T09:52:25;18.77;;;9.60;;
65459;SDS011;52058;49.822;6.754;2023-02-15T09:55:07;22.50;;;11.00;;
65459;SDS011;52058;49.822;6.754;2023-02-15T09:57:43;21.50;;;10.73;;
65459;SDS011;52058;49.822;6.754;2023-02-15T10:00:18;20.13;;;10.57;;
65459;SDS011;52058;49.822;6.754;2023-02-15T10:05:48;24.65;;;12.13;;
65459;SDS011;52058;49.822;6.754;2023-02-15T10:08:32;23.33;;;12.32;;
65459;SDS011;52058;49.822;6.754;2023-02-15T10:11:13;24.65;;;12.27;;
65459;SDS011;52058;49.822;6.754;2023-02-15T10:14:06;24.13;;;12.45;;
65459;SDS011;52058;49.822;6.754;2023-02-15T10:16:42;21.17;;;11.63;;
65459;SDS011;52058;49.822;6.754;2023-02-15T10:19:20;20.48;;;11.38;;
65459;SDS011;52058;49.822;6.754;2023-02-15T10:22:02;22.58;;;11.35;;
65459;SDS011;52058;49.822;6.754;2023-02-15T10:24:39;22.52;;;11.60;;
65459;SDS011;52058;49.822;6.754;2023-02-15T10:27:18;23.02;;;12.40;;
65459;SDS011;52058;49.822;6.754;2023-02-15T10:29:50;23.35;;;12.38;;
65459;SDS011;52058;49.822;6.754;2023-02-15T10:32:26;23.65;;;11.73;;
65459;SDS011;52058;49.822;6.754;2023-02-15T10:34:58;22.55;;;12.32;;
65459;SDS011;52058;49.822;6.754;2023-02-15T10:37:40;21.90;;;12.70;;
65459;SDS011;52058;49.822;6.754;2023-02-15T10:40:20;24.13;;;13.07;;
65459;SDS011;52058;49.822;6.754;2023-02-15T10:42:59;22.75;;;12.93;;
65459;SDS011;52058;49.822;6.754;2023-02-15T10:45:43;21.88;;;12.27;;
65459;SDS011;52058;49.822;6.754;2023-02-15T10:51:22;27.63;;;13.73;;
65459;SDS011;52058;49.822;6.754;2023-02-15T10:54:05;26.58;;;13.90;;
65459;SDS011;52058;49.822;6.754;2023-02-15T10:56:40;22.98;;;12.80;;
65459;SDS011;52058;49.822;6.754;2023-02-15T10:59:23;25.75;;;13.30;;
65459;SDS011;52058;49.822;6.754;2023-02-15T11:02:04;25.35;;;12.25;;
65459;SDS011;52058;49.822;6.754;2023-02-15T11:04:43;24.75;;;13.73;;
65459;SDS011;52058;49.822;6.754;2023-02-15T11:07:16;23.02;;;12.80;;
65459;SDS011;52058;49.822;6.754;2023-02-15T11:09:47;23.10;;;13.27;;
65459;SDS011;52058;49.822;6.754;2023-02-15T11:12:16;22.98;;;12.80;;
65459;SDS011;52058;49.822;6.754;2023-02-15T11:14:46;25.00;;;13.25;;
65459;SDS011;52058;49.822;6.754;2023-02-15T11:17:21;26.85;;;12.88;;
65459;SDS011;52058;49.822;6.754;2023-02-15T11:19:54;25.52;;;12.95;;
65459;SDS011;52058;49.822;6.754;2023-02-15T11:22:27;23.38;;;13.05;;
65459;SDS011;52058;49.822;6.754;2023-02-15T11:24:56;24.42;;;13.48;;
65459;SDS011;52058;49.822;6.754;2023-02-15T11:27:25;24.65;;;13.15;;
65459;SDS011;52058;49.822;6.754;2023-02-15T11:29:57;30.75;;;14.10;;
65459;SDS011;52058;49.822;6.754;2023-02-15T11:32:29;23.38;;;14.48;;
65459;SDS011;52058;49.822;6.754;2023-02-15T11:34:59;26.73;;;13.77;;
65459;SDS011;52058;49.822;6.754;2023-02-15T11:37:32;22.77;;;13.50;;
65459;SDS011;52058;49.822;6.754;2023-02-15T11:42:38;22.58;;;12.68;;
65459;SDS011;52058;49.822;6.754;2023-02-15T11:45:11;26.58;;;13.68;;
65459;SDS011;52058;49.822;6.754;2023-02-15T11:47:50;27.05;;;13.27;;
65459;SDS011;52058;49.822;6.754;2023-02-15T11:50:19;23.02;;;12.93;;
65459;SDS011;52058;49.822;6.754;2023-02-15T11:52:48;24.48;;;12.68;;
65459;SDS011;52058;49.822;6.754;2023-02-15T11:55:17;28.25;;;13.93;;
65459;SDS011;52058;49.822;6.754;2023-02-15T11:57:48;24.25;;;14.02;;
65459;SDS011;52058;49.822;6.754;2023-02-15T12:02:53;36.83;;;15.10;;
65459;SDS011;52058;49.822;6.754;2023-02-15T12:05:23;31.00;;;15.73;;
65459;SDS011;52058;49.822;6.754;2023-02-15T12:07:52;31.95;;;14.98;;
65459;SDS011;52058;49.822;6.754;2023-02-15T12:10:22;33.15;;;15.75;;
65459;SDS011;52058;49.822;6.754;2023-02-15T12:13:07;32.08;;;15.52;;
65459;SDS011;52058;49.822;6.754;2023-02-15T12:15:35;27.67;;;14.25;;
65459;SDS011;52058;49.822;6.754;2023-02-15T12:18:15;30.60;;;15.13;;
65459;SDS011;52058;49.822;6.754;2023-02-15T12:20:45;27.77;;;14.82;;
65459;SDS011;52058;49.822;6.754;2023-02-15T12:23:13;28.13;;;15.23;;
65459;SDS011;52058;49.822;6.754;2023-02-15T12:25:42;31.60;;;15.45;;
65459;SDS011;52058;49.822;6.754;2023-02-15T12:28:21;28.90;;;15.23;;
65459;SDS011;52058;49.822;6.754;2023-02-15T12:30:51;29.27;;;14.02;;
65459;SDS011;52058;49.822;6.754;2023-02-15T12:33:25;25.63;;;14.40;;
65459;SDS011;52058;49.822;6.754;2023-02-15T12:35:56;23.88;;;13.05;;
65459;SDS011;52058;49.822;6.754;2023-02-15T12:38:26;26.88;;;14.57;;
65459;SDS011;52058;49.822;6.754;2023-02-15T12:40:57;28.33;;;13.80;;
65459;SDS011;52058;49.822;6.754;2023-02-15T12:43:26;27.58;;;13.98;;
65459;SDS011;52058;49.822;6.754;2023-02-15T12:45:58;28.70;;;14.88;;
65459;SDS011;52058;49.822;6.754;2023-02-15T12:48:46;24.08;;;14.20;;
65459;SDS011;52058;49.822;6.754;2023-02-15T12:51:14;24.38;;;13.27;;
65459;SDS011;52058;49.822;6.754;2023-02-15T12:53:41;24.67;;;13.18;;
65459;SDS011;52058;49.822;6.754;2023-02-15T12:56:09;22.65;;;13.90;;
65459;SDS011;52058;49.822;6.754;2023-02-15T12:58:37;24.92;;;14.00;;
65459;SDS011;52058;49.822;6.754;2023-02-15T13:01:12;27.88;;;15.13;;
65459;SDS011;52058;49.822;6.754;2023-02-15T13:03:53;26.55;;;14.35;;
65459;SDS011;52058;49.822;6.754;2023-02-15T13:06:22;25.40;;;14.35;;
65459;SDS011;52058;49.822;6.754;2023-02-15T13:08:50;22.55;;;13.90;;
65459;SDS011;52058;49.822;6.754;2023-02-15T13:11:19;27.17;;;13.85;;
65459;SDS011;52058;49.822;6.754;2023-02-15T13:13:52;26.48;;;14.15;;
65459;SDS011;52058;49.822;6.754;2023-02-15T13:16:21;20.58;;;13.48;;
65459;SDS011;52058;49.822;6.754;2023-02-15T13:18:57;24.27;;;14.65;;
65459;SDS011;52058;49.822;6.754;2023-02-15T13:21:30;26.67;;;14.40;;
65459;SDS011;52058;49.822;6.754;2023-02-15T13:24:01;22.20;;;13.02;;
65459;SDS011;52058;49.822;6.754;2023-02-15T13:26:31;28.15;;;15.13;;
65459;SDS011;52058;49.822;6.754;2023-02-15T13:29:01;31.65;;;17.02;;
65459;SDS011;52058;49.822;6.754;2023-02-15T13:31:33;24.42;;;15.88;;
65459;SDS011;52058;49.822;6.754;2023-02-15T13:34:03;22.98;;;12.80;;
65459;SDS011;52058;49.822;6.754;2023-02-15T13:36:38;26.80;;;15.40;;
65459;SDS011;52058;49.822;6.754;2023-02-15T13:39:17;37.35;;;22.58;;
65459;SDS011;52058;49.822;6.754;2023-02-15T13:41:53;30.15;;;17.65;;
65459;SDS011;52058;49.822;6.754;2023-02-15T13:44:37;24.00;;;14.45;;
65459;SDS011;52058;49.822;6.754;2023-02-15T13:47:17;32.65;;;24.77;;
65459;SDS011;52058;49.822;6.754;2023-02-15T13:49:54;29.67;;;13.60;;
65459;SDS011;52058;49.822;6.754;2023-02-15T13:52:31;24.27;;;13.13;;
65459;SDS011;52058;49.822;6.754;2023-02-15T13:55:23;23.00;;;13.68;;
65459;SDS011;52058;49.822;6.754;2023-02-15T13:58:01;21.30;;;12.63;;
65459;SDS011;52058;49.822;6.754;2023-02-15T14:00:52;26.42;;;12.48;;
65459;SDS011;52058;49.822;6.754;2023-02-15T14:03:34;22.90;;;12.85;;
65459;SDS011;52058;49.822;6.754;2023-02-15T14:06:49;21.98;;;12.35;;
65459;SDS011;52058;49.822;6.754;2023-02-15T14:09:33;21.50;;;13.02;;
65459;SDS011;52058;49.822;6.754;2023-02-15T14:12:16;19.02;;;11.60;;
65459;SDS011;52058;49.822;6.754;2023-02-15T14:17:55;22.23;;;10.82;;
65459;SDS011;52058;49.822;6.754;2023-02-15T14:20:31;21.27;;;11.43;;
65459;SDS011;52058;49.822;6.754;2023-02-15T14:23:11;18.75;;;12.02;;
65459;SDS011;52058;49.822;6.754;2023-02-15T14:25:55;20.60;;;11.90;;
65459;SDS011;52058;49.822;6.754;2023-02-15T14:28:27;19.20;;;11.68;;
65459;SDS011;52058;49.822;6.754;2023-02-15T14:31:00;18.50;;;11.48;;
65459;SDS011;52058;49.822;6.754;2023-02-15T14:33:32;20.35;;;10.95;;
65459;SDS011;52058;49.822;6.754;2023-02-15T14:36:03;22.23;;;11.70;;
65459;SDS011;52058;49.822;6.754;2023-02-15T14:38:38;19.67;;;11.55;;
65459;SDS011;52058;49.822;6.754;2023-02-15T14:41:15;22.47;;;12.43;;
65459;SDS011;52058;49.822;6.754;2023-02-15T14:43:52;19.58;;;11.98;;
65459;SDS011;52058;49.822;6.754;2023-02-15T14:46:27;21.10;;;11.47;;
65459;SDS011;52058;49.822;6.754;2023-02-15T14:49:03;24.15;;;12.30;;
65459;SDS011;52058;49.822;6.754;2023-02-15T14:57:26;22.08;;;13.07;;
65459;SDS011;52058;49.822;6.754;2023-02-15T14:59:56;23.30;;;12.30;;
65459;SDS011;52058;49.822;6.754;2023-02-15T15:02:25;21.38;;;12.00;;
65459;SDS011;52058;49.822;6.754;2023-02-15T15:04:56;22.55;;;12.00;;
65459;SDS011;52058;49.822;6.754;2023-02-15T15:07:35;20.65;;;12.13;;
65459;SDS011;52058;49.822;6.754;2023-02-15T15:10:18;20.58;;;11.45;;
65459;SDS011;52058;49.822;6.754;2023-02-15T15:12:59;20.90;;;11.63;;
65459;SDS011;52058;49.822;6.754;2023-02-15T15:22:30;27.25;;;13.38;;
65459;SDS011;52058;49.822;6.754;2023-02-15T15:24:58;21.75;;;12.23;;